createdAt,value
2023-04-24T00:07:42.543Z,10.74
2023-04-24T00:36:07.874Z,10.63
2023-04-24T00:50:20.894Z,10.74
2023-04-24T01:04:34.098Z,10.75
2023-04-24T01:18:49.016Z,10.92
2023-04-24T01:32:57.933Z,10.96
2023-04-24T01:47:11.502Z,11.01
2023-04-24T02:01:23.770Z,10.69
2023-04-24T02:15:35.778Z,10.57
2023-04-24T02:29:48.238Z,10.54
2023-04-24T02:44:01.937Z,10.56
2023-04-24T02:58:11.918Z,10.63
2023-04-24T03:12:26.324Z,10.61
2023-04-24T03:26:35.180Z,10.6
2023-04-24T03:40:46.927Z,10.29
2023-04-24T03:54:57.745Z,9.66
2023-04-24T04:09:08.716Z,9.15
2023-04-24T04:23:18.920Z,8.59
2023-04-24T04:37:29.288Z,8.16
2023-04-24T04:51:42.454Z,7.82
2023-04-24T05:05:51.847Z,7.61
2023-04-24T05:20:03.772Z,7.42
2023-04-24T05:34:15.397Z,7.47
2023-04-24T05:48:28.416Z,7.69
2023-04-24T06:02:44.361Z,9.04
2023-04-24T06:16:57.779Z,9.81
2023-04-24T06:31:14.079Z,10.07
2023-04-24T06:35:32.778Z,10.34
2023-04-24T06:45:07.473Z,10.41
2023-04-24T06:55:43.321Z,10.38
2023-04-24T06:56:47.399Z,10.43
2023-04-24T06:57:49.716Z,10.48
2023-04-24T06:58:53.767Z,10.55
2023-04-24T06:59:36.464Z,10.48
2023-04-24T07:13:47.032Z,10.89
2023-04-24T07:14:45.818Z,10.93
2023-04-24T07:15:49.772Z,10.96
2023-04-24T07:16:52.008Z,10.98
2023-04-24T07:26:26.429Z,11.04
2023-04-24T07:27:28.744Z,11.08
2023-04-24T07:28:31.238Z,11.14
2023-04-24T07:29:35.364Z,11.17
2023-04-24T07:30:39.236Z,11.20
2023-04-24T07:31:41.579Z,11.24
2023-04-24T07:32:43.990Z,11.25
2023-04-24T07:33:46.469Z,11.24
2023-04-24T07:34:48.945Z,11.29
2023-04-24T07:35:51.362Z,11.32
2023-04-24T07:36:55.407Z,11.35
2023-04-24T07:37:59.269Z,11.40
2023-04-24T07:39:01.582Z,11.45
2023-04-24T07:40:05.085Z,11.50
2023-04-24T07:41:06.563Z,11.51
2023-04-24T07:42:11.563Z,11.58
2023-04-24T07:43:15.461Z,11.64
2023-04-24T07:44:17.747Z,11.67
2023-04-24T07:45:21.815Z,11.69
2023-04-24T07:46:25.809Z,11.73
2023-04-24T07:48:30.556Z,11.77
2023-04-24T07:49:34.603Z,11.76
2023-04-24T07:50:36.827Z,11.73
2023-04-24T07:51:39.306Z,11.68
2023-04-24T07:52:41.649Z,11.66
2023-04-24T07:53:45.795Z,11.67
2023-04-24T07:54:48.092Z,11.65
2023-04-24T07:56:52.900Z,11.66
2023-04-24T07:57:56.972Z,11.63
2023-04-24T07:58:59.219Z,11.66
2023-04-24T08:08:31.053Z,11.60
2023-04-24T08:09:33.522Z,11.62
2023-04-24T08:10:37.618Z,11.65
2023-04-24T08:12:45.468Z,11.68
2023-04-24T08:13:49.402Z,11.70
2023-04-24T08:14:51.690Z,11.74
2023-04-24T08:15:54.174Z,11.77
2023-04-24T08:16:56.653Z,11.83
2023-04-24T08:19:04.553Z,11.82
2023-04-24T08:20:08.563Z,11.86
2023-04-24T08:22:16.405Z,11.87
2023-04-24T08:23:18.686Z,11.80
2023-04-24T08:24:21.189Z,11.83
2023-04-24T08:25:23.625Z,11.85
2023-04-24T08:26:27.621Z,11.87
2023-04-24T08:27:30.004Z,11.93
2023-04-24T08:28:33.997Z,11.97
2023-04-24T08:29:36.424Z,12.05
2023-04-24T08:30:40.591Z,12.06
2023-04-24T08:31:44.468Z,12.04
2023-04-24T08:32:48.369Z,12.07
2023-04-24T08:33:50.646Z,12.08
2023-04-24T08:34:54.738Z,12.11
2023-04-24T08:35:58.665Z,12.16
2023-04-24T08:37:01.003Z,12.21
2023-04-24T08:38:04.987Z,12.24
2023-04-24T08:40:11.357Z,12.23
2023-04-24T08:41:13.679Z,12.26
2023-04-24T08:42:16.164Z,12.30
2023-04-24T08:43:21.201Z,12.29
2023-04-24T08:44:23.460Z,12.28
2023-04-24T08:45:25.862Z,12.24
2023-04-24T08:47:32.393Z,12.21
2023-04-24T08:49:38.715Z,12.18
2023-04-24T08:50:40.934Z,12.15
2023-04-24T08:52:47.342Z,12.10
2023-04-24T08:53:49.772Z,12.13
2023-04-24T08:54:52.206Z,12.11
2023-04-24T08:55:56.436Z,12.15
2023-04-24T08:56:58.656Z,12.17
2023-04-24T08:58:02.702Z,12.18
2023-04-24T08:59:06.554Z,12.17
2023-04-24T09:01:11.338Z,12.13
2023-04-24T09:03:16.332Z,12.10
2023-04-24T09:04:18.903Z,12.09
2023-04-24T09:05:21.126Z,12.15
2023-04-24T09:06:23.532Z,12.19
2023-04-24T09:07:27.577Z,12.20
2023-04-24T09:09:32.326Z,12.27
2023-04-24T09:10:36.478Z,12.36
2023-04-24T09:11:40.372Z,12.47
2023-04-24T09:12:42.713Z,12.52
2023-04-24T09:13:45.150Z,12.58
2023-04-24T09:14:49.183Z,12.66
2023-04-24T09:15:51.522Z,12.69
2023-04-24T09:16:55.613Z,12.64
2023-04-24T09:17:57.971Z,12.63
2023-04-24T09:19:01.974Z,12.64
2023-04-24T09:20:04.290Z,12.66
2023-04-24T09:21:08.271Z,12.63
2023-04-24T09:22:10.611Z,12.62
2023-04-24T09:23:15.672Z,12.54
2023-04-24T09:24:17.953Z,12.47
2023-04-24T09:25:20.276Z,12.48
2023-04-24T09:26:22.797Z,12.46
2023-04-24T09:27:26.810Z,12.38
2023-04-24T09:28:29.155Z,12.35
2023-04-24T09:29:31.562Z,12.29
2023-04-24T09:30:35.596Z,12.26
2023-04-24T09:31:39.660Z,12.24
2023-04-24T09:32:43.593Z,12.25
2023-04-24T09:33:47.554Z,12.24
2023-04-24T09:34:51.531Z,12.23
2023-04-24T09:35:55.486Z,12.21
2023-04-24T09:36:57.902Z,12.28
2023-04-24T09:38:00.231Z,12.27
2023-04-24T09:39:02.762Z,12.26
2023-04-24T09:40:05.168Z,12.30
2023-04-24T09:41:07.667Z,12.37
2023-04-24T09:42:10.097Z,12.42
2023-04-24T09:43:14.174Z,12.51
2023-04-24T09:44:16.495Z,12.48
2023-04-24T09:45:18.994Z,12.50
2023-04-24T09:46:23.086Z,12.52
2023-04-24T09:47:25.423Z,12.53
2023-04-24T09:48:29.502Z,12.46
2023-04-24T09:49:31.748Z,12.42
2023-04-24T09:51:38.152Z,12.34
2023-04-24T09:52:42.171Z,12.35
2023-04-24T09:53:44.610Z,12.28
2023-04-24T09:54:47.040Z,12.24
2023-04-24T09:55:49.406Z,12.13
2023-04-24T09:56:51.895Z,12.11
2023-04-24T09:57:54.252Z,12.09
2023-04-24T09:58:59.446Z,12.01
2023-04-24T10:00:03.224Z,12.02
2023-04-24T10:01:05.649Z,11.99
2023-04-24T10:02:09.639Z,12.00
2023-04-24T10:03:12.096Z,12.05
2023-04-24T10:04:14.538Z,12.08
2023-04-24T10:05:18.526Z,12.02
2023-04-24T10:06:20.972Z,12.06
2023-04-24T10:07:23.416Z,12.10
2023-04-24T10:08:25.919Z,12.13
2023-04-24T10:09:28.392Z,12.22
2023-04-24T10:10:30.869Z,12.31
2023-04-24T10:11:33.272Z,12.34
2023-04-24T10:12:37.387Z,12.35
2023-04-24T10:13:39.767Z,12.40
2023-04-24T10:14:44.478Z,12.49
2023-04-24T10:15:46.150Z,12.58
2023-04-24T10:16:48.553Z,12.69
2023-04-24T10:17:51.098Z,12.76
2023-04-24T10:18:55.169Z,12.82
2023-04-24T10:19:59.369Z,12.92
2023-04-24T10:21:01.620Z,12.87
2023-04-24T10:22:07.663Z,12.89
2023-04-24T10:23:09.792Z,12.83
2023-04-24T10:24:13.468Z,12.79
2023-04-24T10:26:19.842Z,12.74
2023-04-24T10:27:23.828Z,12.69
2023-04-24T10:28:26.206Z,12.66
2023-04-24T10:29:28.605Z,12.60
2023-04-24T10:30:31.060Z,12.56
2023-04-24T10:31:33.600Z,12.55
2023-04-24T10:32:35.990Z,12.49
2023-04-24T10:33:38.400Z,12.47
2023-04-24T10:34:40.867Z,12.42
2023-04-24T10:35:43.331Z,12.28
2023-04-24T10:36:45.742Z,12.25
2023-04-24T10:37:48.126Z,12.22
2023-04-24T10:38:52.198Z,12.04
2023-04-24T10:39:54.611Z,12.00
2023-04-24T10:40:57.090Z,11.99
2023-04-24T10:41:59.485Z,11.97
2023-04-24T10:43:03.536Z,11.89
2023-04-24T10:44:05.759Z,11.79
2023-04-24T10:45:08.239Z,11.74
2023-04-24T10:46:10.671Z,11.68
2023-04-24T10:47:14.729Z,11.58
2023-04-24T10:48:17.005Z,11.52
2023-04-24T10:49:21.103Z,11.47
2023-04-24T10:50:23.377Z,11.42
2023-04-24T10:51:25.880Z,11.39
2023-04-24T10:52:28.298Z,11.36
2023-04-24T10:53:30.754Z,11.25
2023-04-24T10:54:33.195Z,11.19
2023-04-24T10:55:37.225Z,11.15
2023-04-24T10:56:41.171Z,11.12
2023-04-24T10:57:45.197Z,11.10
2023-04-24T11:00:55.256Z,11.04
2023-04-24T11:03:01.506Z,11.05
2023-04-24T11:05:07.827Z,11.02
2023-04-24T11:06:10.136Z,10.98
2023-04-24T11:07:14.209Z,10.94
2023-04-24T11:09:22.211Z,10.91
2023-04-24T11:19:56.296Z,10.54
2023-04-24T11:22:01.043Z,10.53
2023-04-24T11:23:03.522Z,10.52
2023-04-24T11:24:06.006Z,10.56
2023-04-24T11:26:10.856Z,10.54
2023-04-24T11:27:13.331Z,10.52
2023-04-24T11:28:15.741Z,10.53
2023-04-24T11:29:20.378Z,10.55
2023-04-24T11:30:22.141Z,10.58
2023-04-24T11:31:26.145Z,10.62
2023-04-24T11:32:30.066Z,10.63
2023-04-24T11:34:36.243Z,10.55
2023-04-24T11:35:38.703Z,10.59
2023-04-24T11:39:51.453Z,10.57
2023-04-24T11:41:57.197Z,10.64
2023-04-24T11:42:59.674Z,10.76
2023-04-24T11:44:02.374Z,10.81
2023-04-24T11:45:06.544Z,10.94
2023-04-24T11:46:08.824Z,11.04
2023-04-24T11:47:12.893Z,11.16
2023-04-24T11:48:16.855Z,11.28
2023-04-24T11:49:19.309Z,11.33
2023-04-24T11:50:21.856Z,11.44
2023-04-24T11:51:27.497Z,11.53
2023-04-24T11:52:29.942Z,11.66
2023-04-24T11:53:32.333Z,11.76
2023-04-24T11:54:34.791Z,11.88
2023-04-24T11:55:38.905Z,12.00
2023-04-24T11:56:41.275Z,12.11
2023-04-24T11:57:49.396Z,12.17
2023-04-24T11:58:53.177Z,12.20
2023-04-24T11:59:57.127Z,12.27
2023-04-24T12:00:59.571Z,12.35
2023-04-24T12:02:03.458Z,12.39
2023-04-24T12:03:07.083Z,12.45
2023-04-24T12:04:19.299Z,12.56
2023-04-24T12:05:21.273Z,12.66
2023-04-24T12:06:23.450Z,12.68
2023-04-24T12:07:27.522Z,12.84
2023-04-24T12:08:34.598Z,12.96
2023-04-24T12:09:38.046Z,12.99
2023-04-24T12:10:42.920Z,13.01
2023-04-24T12:11:46.683Z,12.96
2023-04-24T12:12:50.710Z,13.06
2023-04-24T12:13:53.004Z,13.24
2023-04-24T12:14:55.509Z,13.32
2023-04-24T12:15:59.620Z,13.45
2023-04-24T12:17:03.516Z,13.56
2023-04-24T12:18:06.013Z,13.61
2023-04-24T12:19:09.952Z,13.56
2023-04-24T12:20:13.859Z,13.58
2023-04-24T12:21:16.162Z,13.54
2023-04-24T12:22:20.457Z,13.45
2023-04-24T12:23:22.715Z,13.46
2023-04-24T12:24:26.810Z,13.44
2023-04-24T12:25:29.205Z,13.42
2023-04-24T12:26:31.702Z,13.37
2023-04-24T12:27:35.705Z,13.40
2023-04-24T12:28:39.647Z,13.39
2023-04-24T12:29:43.569Z,13.38
2023-04-24T12:30:45.911Z,13.36
2023-04-24T12:31:48.389Z,13.37
2023-04-24T12:34:57.153Z,13.36
2023-04-24T12:36:01.220Z,13.38
2023-04-24T12:37:05.212Z,13.39
2023-04-24T12:38:07.563Z,13.50
2023-04-24T12:39:11.647Z,13.61
2023-04-24T12:40:14.074Z,13.66
2023-04-24T12:41:16.563Z,13.73
2023-04-24T12:42:19.025Z,13.79
2023-04-24T12:43:23.044Z,13.89
2023-04-24T12:44:25.399Z,13.97
2023-04-24T12:45:27.862Z,14.21
2023-04-24T12:46:30.302Z,14.37
2023-04-24T12:47:33.922Z,14.39
2023-04-24T12:48:36.299Z,14.37
2023-04-24T12:49:40.352Z,14.35
2023-04-24T12:50:44.995Z,14.34
2023-04-24T12:51:46.765Z,14.27
2023-04-24T12:52:50.787Z,14.28
2023-04-24T12:53:54.339Z,14.24
2023-04-24T12:54:55.503Z,14.23
2023-04-24T12:56:03.574Z,14.30
2023-04-24T12:57:05.792Z,14.35
2023-04-24T12:58:09.893Z,14.34
2023-04-24T13:00:14.608Z,14.27
2023-04-24T13:02:19.643Z,14.19
2023-04-24T13:03:22.021Z,14.07
2023-04-24T13:04:24.513Z,14.06
2023-04-24T13:05:28.504Z,14.05
2023-04-24T13:06:32.424Z,14.02
2023-04-24T13:08:38.767Z,13.94
2023-04-24T13:09:41.155Z,13.91
2023-04-24T13:10:43.566Z,13.89
2023-04-24T13:11:47.700Z,13.84
2023-04-24T13:12:50.036Z,13.81
2023-04-24T13:13:54.272Z,13.78
2023-04-24T13:14:55.863Z,13.81
2023-04-24T13:15:59.841Z,13.80
2023-04-24T13:17:02.474Z,13.79
2023-04-24T13:18:04.904Z,13.85
2023-04-24T13:19:09.852Z,13.79
2023-04-24T13:20:12.161Z,13.83
2023-04-24T13:21:14.622Z,13.89
2023-04-24T13:22:17.056Z,13.94
2023-04-24T13:23:19.528Z,13.97
2023-04-24T13:24:22.044Z,13.99
2023-04-24T13:25:24.522Z,14.02
2023-04-24T13:26:28.593Z,14.03
2023-04-24T13:28:58.403Z,14.15
2023-04-24T13:30:00.865Z,14.37
2023-04-24T13:31:04.899Z,14.59
2023-04-24T13:32:07.326Z,14.54
2023-04-24T13:33:11.365Z,14.49
2023-04-24T13:34:16.733Z,14.64
2023-04-24T13:35:20.860Z,14.60
2023-04-24T13:36:23.150Z,14.65
2023-04-24T13:37:27.213Z,14.63
2023-04-24T13:38:31.142Z,14.62
2023-04-24T13:39:35.094Z,14.52
2023-04-24T13:40:37.382Z,14.39
2023-04-24T13:41:41.399Z,14.37
2023-04-24T13:42:43.672Z,14.24
2023-04-24T13:43:46.246Z,14.17
2023-04-24T13:44:48.643Z,14.03
2023-04-24T13:45:51.147Z,13.98
2023-04-24T13:46:53.542Z,13.84
2023-04-24T13:47:56.013Z,13.81
2023-04-24T13:48:58.401Z,13.77
2023-04-24T13:50:00.848Z,13.72
2023-04-24T13:51:04.938Z,13.66
2023-04-24T13:52:07.277Z,13.61
2023-04-24T13:53:09.672Z,13.59
2023-04-24T13:54:13.678Z,13.60
2023-04-24T13:55:16.051Z,13.58
2023-04-24T13:56:18.543Z,13.63
2023-04-24T13:57:22.560Z,13.61
2023-04-24T13:58:27.452Z,13.64
2023-04-24T13:59:31.317Z,13.65
2023-04-24T14:00:35.215Z,13.68
2023-04-24T14:03:45.907Z,13.67
2023-04-24T14:04:47.994Z,13.64
2023-04-24T14:05:50.206Z,13.61
2023-04-24T14:06:52.731Z,13.62
2023-04-24T14:07:56.791Z,13.59
2023-04-24T14:09:00.764Z,13.61
2023-04-24T14:10:03.150Z,13.63
2023-04-24T14:11:05.575Z,13.66
2023-04-24T14:13:10.438Z,13.68
2023-04-24T14:14:12.840Z,13.67
2023-04-24T14:15:15.272Z,13.63
2023-04-24T14:17:23.433Z,13.64
2023-04-24T14:18:25.763Z,13.63
2023-04-24T14:19:28.175Z,13.60
2023-04-24T14:21:36.188Z,13.58
2023-04-24T14:22:40.060Z,13.53
2023-04-24T14:23:42.526Z,13.59
2023-04-24T14:24:45.762Z,13.61
2023-04-24T14:25:49.805Z,13.73
2023-04-24T14:26:52.084Z,13.95
2023-04-24T14:27:56.170Z,14.19
2023-04-24T14:29:07.494Z,14.24
2023-04-24T14:30:01.066Z,14.38
2023-04-24T14:31:03.450Z,14.44
2023-04-24T14:33:10.914Z,14.39
2023-04-24T14:34:14.777Z,14.42
2023-04-24T14:35:17.130Z,14.40
2023-04-24T14:36:21.213Z,14.44
2023-04-24T14:37:26.045Z,14.64
2023-04-24T14:38:28.460Z,14.83
2023-04-24T14:39:32.499Z,15.13
2023-04-24T14:41:37.450Z,15.37
2023-04-24T14:42:39.952Z,15.46
2023-04-24T14:48:41.949Z,15.66
2023-04-24T15:02:54.425Z,15.09
2023-04-24T15:17:06.820Z,15.2
2023-04-24T15:31:20.819Z,15.42
2023-04-24T15:45:32.979Z,15.16
2023-04-24T15:47:44.814Z,15.10
2023-04-24T15:48:47.036Z,15.00
2023-04-24T15:49:49.337Z,14.92
2023-04-24T15:50:54.489Z,14.81
2023-04-24T15:51:59.337Z,14.72
2023-04-24T15:53:01.561Z,14.63
2023-04-24T15:54:04.034Z,14.56
2023-04-24T15:55:07.759Z,14.50
2023-04-24T15:56:11.171Z,14.44
2023-04-24T15:57:14.249Z,14.38
2023-04-24T15:58:16.781Z,14.36
2023-04-24T15:59:19.239Z,14.32
2023-04-24T16:00:21.785Z,14.24
2023-04-24T16:01:25.666Z,14.15
2023-04-24T16:02:29.262Z,14.08
2023-04-24T16:03:31.545Z,14.04
2023-04-24T16:04:35.796Z,14.02
2023-04-24T16:05:37.739Z,13.98
2023-04-24T16:06:41.200Z,13.93
2023-04-24T16:07:44.563Z,14.07
2023-04-24T16:08:48.306Z,14.36
2023-04-24T16:09:50.396Z,14.56
2023-04-24T16:13:55.223Z,14.24
2023-04-24T16:28:10.985Z,14.56
2023-04-24T16:42:21.167Z,14.11
2023-04-24T16:56:22.293Z,13.99
2023-04-24T16:56:32.331Z,13.49
2023-04-24T17:02:45.076Z,13.39
2023-04-24T17:03:47.604Z,13.22
2023-04-24T17:04:51.324Z,13.01
2023-04-24T17:05:53.573Z,12.77
2023-04-24T17:06:55.931Z,12.57
2023-04-24T17:07:59.969Z,12.37
2023-04-24T17:09:02.218Z,12.14
2023-04-24T17:10:05.579Z,12.00
2023-04-24T17:11:08.998Z,11.83
2023-04-24T17:12:12.906Z,11.72
2023-04-24T17:13:15.126Z,11.67
2023-04-24T17:14:17.711Z,11.56
2023-04-24T17:15:20.080Z,11.46
2023-04-24T17:16:22.487Z,11.36
2023-04-24T17:17:25.916Z,11.24
2023-04-24T17:18:29.702Z,11.18
2023-04-24T17:19:33.659Z,11.12
2023-04-24T17:20:35.983Z,11.07
2023-04-24T17:24:49.838Z,10.97
2023-04-24T17:31:09.511Z,10.46
2023-04-24T17:32:12.027Z,10.45
2023-04-24T17:33:17.003Z,10.50
2023-04-24T17:39:00.696Z,10.4
2023-04-24T17:42:46.374Z,10.25
2023-04-24T17:43:48.913Z,10.26
2023-04-24T17:45:56.524Z,10.30
2023-04-24T17:46:58.546Z,10.33
2023-04-24T17:53:12.474Z,10.12
2023-04-24T17:58:35.126Z,10.08
2023-04-24T18:07:23.628Z,9.98
2023-04-24T18:19:42.815Z,9.93
2023-04-24T18:21:35.607Z,9.84
2023-04-24T18:35:48.886Z,9.61
2023-04-24T18:49:57.250Z,9.5
2023-04-24T19:04:10.937Z,9.37
2023-04-24T19:18:18.832Z,9.17
2023-04-24T19:32:30.962Z,9.05
2023-04-24T19:46:43.523Z,8.86
2023-04-24T20:00:54.388Z,8.47
2023-04-24T20:15:07.049Z,8.54
2023-04-24T20:29:19.963Z,8.57
2023-04-24T20:43:30.992Z,8.73
2023-04-24T20:57:42.719Z,8.81
2023-04-24T21:11:55.393Z,8.93
2023-04-24T21:26:07.314Z,8.94
2023-04-24T21:40:19.717Z,8.98
2023-04-24T21:54:32.420Z,8.85
2023-04-24T22:08:43.301Z,8.6
2023-04-24T22:30:03.338Z,8.43
2023-04-24T22:52:45.732Z,8.6
2023-04-24T23:05:40.398Z,8.52
2023-04-24T23:06:03.084Z,8.1
2023-04-24T23:20:21.429Z,8.06
2023-04-24T23:34:30.776Z,7.98
